createdAt,value
2018-03-18T00:01:53.448Z,36.13
2018-03-18T00:04:22.099Z,31.53
2018-03-18T00:06:50.724Z,31.13
2018-03-18T00:09:19.616Z,30.93
2018-03-18T00:11:48.187Z,28.83
2018-03-18T00:14:16.857Z,33.77
2018-03-18T00:16:45.441Z,32.83
2018-03-18T00:19:14.096Z,31.87
2018-03-18T00:21:42.723Z,33.40
2018-03-18T00:24:11.373Z,39.50
2018-03-18T00:26:39.967Z,35.33
2018-03-18T00:29:08.585Z,29.50
2018-03-18T00:31:37.147Z,37.50
2018-03-18T00:34:05.783Z,35.57
2018-03-18T00:36:34.470Z,26.27
2018-03-18T00:39:03.167Z,31.00
2018-03-18T00:41:31.750Z,29.50
2018-03-18T00:44:00.348Z,29.33
2018-03-18T00:46:28.944Z,30.57
2018-03-18T00:48:57.588Z,33.37
2018-03-18T00:51:38.027Z,26.80
2018-03-18T00:54:06.735Z,33.70
2018-03-18T00:56:35.350Z,28.13
2018-03-18T00:59:04.186Z,28.57
2018-03-18T01:01:32.820Z,30.30
2018-03-18T01:04:01.440Z,27.83
2018-03-18T01:06:30.459Z,33.00
2018-03-18T01:08:59.062Z,29.27
2018-03-18T01:11:27.802Z,31.73
2018-03-18T01:13:56.437Z,25.30
2018-03-18T01:16:25.051Z,32.60
2018-03-18T01:18:53.687Z,21.77
2018-03-18T01:21:22.395Z,27.53
2018-03-18T01:23:50.959Z,27.43
2018-03-18T01:26:19.641Z,28.67
2018-03-18T01:28:48.197Z,26.20
2018-03-18T01:31:16.972Z,29.77
2018-03-18T01:33:45.563Z,29.60
2018-03-18T01:36:14.177Z,33.63
2018-03-18T01:38:44.512Z,29.03
2018-03-18T01:41:13.164Z,32.70
2018-03-18T01:43:41.785Z,31.87
2018-03-18T01:46:10.709Z,34.33
2018-03-18T01:48:39.263Z,27.07
2018-03-18T01:51:07.873Z,34.60
2018-03-18T01:53:36.468Z,30.90
2018-03-18T01:56:05.111Z,29.87
2018-03-18T01:58:33.721Z,34.30
2018-03-18T02:01:02.294Z,23.33
2018-03-18T02:03:30.961Z,28.20
2018-03-18T02:05:59.535Z,31.27
2018-03-18T02:08:28.156Z,29.20
2018-03-18T02:10:56.820Z,26.83
2018-03-18T02:13:25.438Z,33.17
2018-03-18T02:15:54.270Z,36.37
2018-03-18T02:18:23.794Z,30.80
2018-03-18T02:20:52.388Z,27.50
2018-03-18T02:23:21.046Z,33.83
2018-03-18T02:25:49.854Z,29.37
2018-03-18T02:28:18.906Z,32.67
2018-03-18T02:30:47.714Z,28.47
2018-03-18T02:33:16.629Z,26.80
2018-03-18T02:35:45.271Z,25.77
2018-03-18T02:38:14.069Z,30.90
2018-03-18T02:40:42.891Z,30.27
2018-03-18T02:43:11.920Z,32.93
2018-03-18T02:45:40.835Z,29.13
2018-03-18T02:48:09.575Z,32.27
2018-03-18T02:50:38.382Z,28.57
2018-03-18T02:53:07.208Z,23.23
2018-03-18T02:55:36.028Z,23.90
2018-03-18T02:58:04.918Z,24.97
2018-03-18T03:00:33.655Z,29.30
2018-03-18T03:03:02.494Z,27.80
2018-03-18T03:05:31.137Z,28.97
2018-03-18T03:07:59.934Z,29.53
2018-03-18T03:10:28.826Z,28.00
2018-03-18T03:12:57.518Z,24.80
2018-03-18T03:15:26.200Z,28.43
2018-03-18T03:17:55.632Z,31.47
2018-03-18T03:20:24.345Z,26.27
2018-03-18T03:22:53.270Z,22.03
2018-03-18T03:25:22.092Z,26.37
2018-03-18T03:27:50.910Z,28.37
2018-03-18T03:30:19.561Z,31.47
2018-03-18T03:32:48.379Z,30.40
2018-03-18T03:35:17.080Z,32.73
2018-03-18T03:37:46.003Z,41.57
2018-03-18T03:40:14.825Z,21.10
2018-03-18T03:42:43.748Z,38.03
2018-03-18T03:45:12.573Z,31.67
2018-03-18T03:47:41.492Z,36.87
2018-03-18T03:50:10.215Z,39.63
2018-03-18T03:52:39.040Z,34.53
2018-03-18T03:55:08.889Z,33.13
2018-03-18T03:57:37.709Z,26.20
2018-03-18T04:00:06.609Z,37.83
2018-03-18T04:02:35.429Z,33.70
2018-03-18T04:05:04.253Z,41.10
2018-03-18T04:07:33.174Z,29.23
2018-03-18T04:10:01.897Z,23.80
2018-03-18T04:12:30.793Z,34.53
2018-03-18T04:14:59.640Z,29.77
2018-03-18T04:17:28.454Z,31.53
2018-03-18T04:19:57.285Z,34.17
2018-03-18T04:22:26.130Z,32.30
2018-03-18T04:24:54.906Z,41.67
2018-03-18T04:27:23.850Z,40.73
2018-03-18T04:29:53.376Z,36.23
2018-03-18T04:32:22.100Z,41.90
2018-03-18T04:34:50.921Z,40.77
2018-03-18T04:37:19.843Z,49.50
2018-03-18T04:39:48.751Z,48.33
2018-03-18T04:42:17.687Z,38.83
2018-03-18T04:44:46.686Z,41.70
2018-03-18T04:47:15.551Z,46.03
2018-03-18T04:49:44.471Z,44.23
2018-03-18T04:52:13.191Z,38.87
2018-03-18T04:54:42.000Z,45.30
2018-03-18T04:57:10.723Z,37.50
2018-03-18T04:59:39.543Z,45.87
2018-03-18T05:02:08.368Z,34.30
2018-03-18T05:04:37.979Z,43.70
2018-03-18T05:07:07.311Z,52.50
2018-03-18T05:09:36.103Z,44.00
2018-03-18T05:12:04.863Z,44.80
2018-03-18T05:14:33.687Z,38.37
2018-03-18T05:17:03.005Z,43.93
2018-03-18T05:19:32.332Z,33.60
2018-03-18T05:22:01.178Z,39.10
2018-03-18T05:24:30.006Z,44.60
2018-03-18T05:26:58.901Z,38.70
2018-03-18T05:29:27.822Z,41.87
2018-03-18T05:31:56.769Z,43.67
2018-03-18T05:34:25.493Z,38.87
2018-03-18T05:36:54.385Z,46.63
2018-03-18T05:39:23.210Z,47.70
2018-03-18T05:41:51.946Z,50.07
2018-03-18T05:44:20.771Z,49.43
2018-03-18T05:46:49.589Z,38.43
2018-03-18T05:49:18.571Z,46.83
2018-03-18T05:51:47.419Z,50.47
2018-03-18T05:54:16.244Z,45.70
2018-03-18T05:56:44.970Z,45.83
2018-03-18T05:59:13.687Z,53.73
2018-03-18T06:01:42.608Z,50.60
2018-03-18T06:04:11.550Z,65.80
2018-03-18T06:06:40.456Z,45.90
2018-03-18T06:09:10.054Z,53.93
2018-03-18T06:11:39.002Z,59.13
2018-03-18T06:14:07.889Z,45.93
2018-03-18T06:16:36.750Z,52.80
2018-03-18T06:19:05.443Z,54.20
2018-03-18T06:21:35.972Z,46.30
2018-03-18T06:24:04.803Z,49.47
2018-03-18T06:26:33.719Z,50.17
2018-03-18T06:29:02.563Z,42.03
2018-03-18T06:31:31.540Z,49.80
2018-03-18T06:34:00.495Z,47.03
2018-03-18T06:36:29.211Z,50.90
2018-03-18T06:38:58.055Z,50.07
2018-03-18T06:41:27.480Z,53.13
2018-03-18T06:43:56.404Z,65.47
2018-03-18T06:46:25.075Z,75.40
2018-03-18T06:48:53.842Z,55.53
2018-03-18T06:51:22.687Z,60.03
2018-03-18T06:53:52.189Z,54.43
2018-03-18T06:56:21.075Z,69.03
2018-03-18T06:58:49.834Z,56.50
2018-03-18T07:01:18.970Z,46.80
2018-03-18T07:03:47.781Z,44.40
2018-03-18T07:06:16.503Z,52.43
2018-03-18T07:08:45.228Z,51.57
2018-03-18T07:11:14.053Z,53.13
2018-03-18T07:13:42.967Z,48.83
2018-03-18T07:16:11.891Z,45.53
2018-03-18T07:18:40.718Z,43.00
2018-03-18T07:21:09.637Z,46.40
2018-03-18T07:23:38.307Z,39.70
2018-03-18T07:26:07.083Z,37.40
2018-03-18T07:28:35.930Z,50.53
2018-03-18T07:31:05.148Z,42.83
2018-03-18T07:33:33.947Z,39.50
2018-03-18T07:36:02.690Z,34.87
2018-03-18T07:38:31.500Z,31.53
2018-03-18T07:41:00.419Z,43.23
2018-03-18T07:43:29.178Z,36.43
2018-03-18T07:45:58.063Z,30.83
2018-03-18T07:48:26.882Z,38.03
2018-03-18T07:50:55.648Z,42.77
2018-03-18T07:53:24.526Z,36.03
2018-03-18T07:55:53.223Z,36.53
2018-03-18T07:58:22.097Z,37.60
2018-03-18T08:00:50.892Z,33.43
2018-03-18T08:03:20.505Z,38.07
2018-03-18T08:05:49.443Z,36.40
2018-03-18T08:08:18.366Z,41.13
2018-03-18T08:10:47.811Z,31.20
2018-03-18T08:13:16.608Z,33.33
2018-03-18T08:15:45.432Z,41.57
2018-03-18T08:18:14.172Z,41.03
2018-03-18T08:20:42.874Z,38.23
2018-03-18T08:23:11.698Z,35.03
2018-03-18T08:25:40.820Z,37.73
2018-03-18T08:28:09.542Z,39.83
2018-03-18T08:30:38.434Z,45.90
2018-03-18T08:33:07.131Z,51.37
2018-03-18T08:35:36.812Z,49.50
2018-03-18T08:38:05.532Z,55.17
2018-03-18T08:40:35.360Z,57.00
2018-03-18T08:43:04.080Z,64.23
2018-03-18T08:45:32.804Z,55.73
2018-03-18T08:48:02.329Z,55.87
2018-03-18T08:50:31.051Z,50.23
2018-03-18T08:52:59.857Z,43.10
2018-03-18T08:55:28.698Z,55.70
2018-03-18T08:57:57.618Z,40.87
2018-03-18T09:00:26.442Z,41.80
2018-03-18T09:02:56.365Z,43.27
2018-03-18T09:05:25.116Z,44.90
2018-03-18T09:07:54.012Z,35.40
2018-03-18T09:10:22.768Z,37.53
2018-03-18T09:12:51.560Z,37.77
2018-03-18T09:15:20.275Z,38.50
2018-03-18T09:17:49.219Z,33.00
2018-03-18T09:20:17.879Z,40.13
2018-03-18T09:22:46.565Z,51.27
2018-03-18T09:25:15.383Z,41.63
2018-03-18T09:27:44.069Z,40.17
2018-03-18T09:30:14.147Z,44.00
2018-03-18T09:32:43.035Z,46.60
2018-03-18T09:35:12.429Z,44.77
2018-03-18T09:37:41.374Z,49.13
2018-03-18T09:40:11.128Z,53.90
2018-03-18T09:42:39.934Z,49.47
2018-03-18T09:45:09.683Z,56.30
2018-03-18T09:47:38.383Z,56.03
2018-03-18T09:50:07.173Z,52.50
2018-03-18T09:52:36.023Z,48.70
2018-03-18T09:55:04.832Z,49.13
2018-03-18T09:57:33.599Z,54.43
2018-03-18T10:00:03.221Z,41.87
2018-03-18T10:02:33.272Z,44.63
2018-03-18T10:05:02.140Z,41.10
2018-03-18T10:07:30.978Z,50.87
2018-03-18T10:09:59.789Z,47.67
2018-03-18T10:12:28.770Z,51.53
2018-03-18T10:14:58.512Z,43.97
2018-03-18T10:17:27.255Z,54.23
2018-03-18T10:19:56.098Z,53.33
2018-03-18T10:22:24.774Z,51.40
2018-03-18T10:24:53.621Z,50.53
2018-03-18T10:27:22.341Z,58.37
2018-03-18T10:29:51.072Z,48.20
2018-03-18T10:32:20.001Z,48.53
2018-03-18T10:34:51.217Z,50.80
2018-03-18T10:37:20.058Z,62.00
2018-03-18T10:39:48.865Z,55.67
2018-03-18T10:42:17.509Z,50.27
2018-03-18T10:44:46.304Z,48.13
2018-03-18T10:47:15.851Z,44.80
2018-03-18T10:49:44.551Z,46.67
2018-03-18T10:52:14.281Z,44.13
2018-03-18T10:54:42.984Z,47.60
2018-03-18T10:57:12.401Z,52.73
2018-03-18T10:59:41.070Z,51.40
2018-03-18T11:02:21.715Z,62.70
2018-03-18T11:04:50.633Z,50.80
2018-03-18T11:07:19.455Z,46.83
2018-03-18T11:09:48.360Z,46.03
2018-03-18T11:12:17.298Z,46.40
2018-03-18T11:14:46.222Z,37.97
2018-03-18T11:17:15.045Z,44.47
2018-03-18T11:19:43.865Z,48.77
2018-03-18T11:22:12.687Z,35.97
2018-03-18T11:24:41.610Z,45.07
2018-03-18T11:27:10.532Z,45.03
2018-03-18T11:29:39.257Z,32.73
2018-03-18T11:32:08.180Z,39.83
2018-03-18T11:34:37.080Z,36.07
2018-03-18T11:37:05.922Z,38.80
2018-03-18T11:39:34.764Z,30.20
2018-03-18T11:42:03.670Z,41.27
2018-03-18T11:44:32.593Z,32.23
2018-03-18T11:47:01.422Z,26.13
2018-03-18T11:49:31.051Z,27.17
2018-03-18T11:51:59.760Z,35.37
2018-03-18T11:54:28.684Z,38.93
2018-03-18T11:56:57.618Z,25.37
2018-03-18T11:59:26.327Z,32.33
2018-03-18T12:01:55.162Z,27.93
2018-03-18T12:04:24.071Z,29.93
2018-03-18T12:06:52.893Z,29.13
2018-03-18T12:09:21.920Z,34.73
2018-03-18T12:11:50.637Z,27.97
2018-03-18T12:14:19.562Z,35.43
2018-03-18T12:16:48.243Z,30.37
2018-03-18T12:19:17.203Z,27.03
2018-03-18T12:21:45.931Z,27.83
2018-03-18T12:24:14.750Z,24.33
2018-03-18T12:26:43.637Z,28.10
2018-03-18T12:29:12.396Z,33.20
2018-03-18T12:31:41.566Z,20.40
2018-03-18T12:34:10.413Z,24.10
2018-03-18T12:36:39.356Z,18.83
2018-03-18T12:39:08.531Z,23.10
2018-03-18T12:41:37.207Z,23.87
2018-03-18T12:44:06.132Z,22.43
2018-03-18T12:46:35.053Z,25.60
2018-03-18T12:49:03.875Z,24.50
2018-03-18T12:51:32.726Z,21.13
2018-03-18T12:54:01.624Z,25.07
2018-03-18T12:56:30.343Z,25.80
2018-03-18T12:58:59.064Z,25.50
2018-03-18T13:01:27.953Z,22.17
2018-03-18T13:03:56.707Z,24.03
2018-03-18T13:06:25.510Z,25.90
2018-03-18T13:08:54.177Z,25.50
2018-03-18T13:11:22.884Z,22.63
2018-03-18T13:13:51.611Z,24.03
2018-03-18T13:16:20.354Z,18.03
2018-03-18T13:18:49.151Z,23.90
2018-03-18T13:21:18.074Z,22.30
2018-03-18T13:23:46.916Z,14.83
2018-03-18T13:26:15.719Z,23.57
2018-03-18T13:28:44.639Z,18.70
2018-03-18T13:31:13.430Z,18.33
2018-03-18T13:33:42.284Z,22.00
2018-03-18T13:36:11.186Z,19.90
2018-03-18T13:38:39.829Z,22.23
2018-03-18T13:41:08.656Z,15.87
2018-03-18T13:43:37.693Z,23.43
2018-03-18T13:46:06.419Z,21.77
2018-03-18T13:48:35.444Z,19.63
2018-03-18T13:51:05.057Z,18.83
2018-03-18T13:53:33.866Z,20.03
2018-03-18T13:56:02.769Z,15.33
2018-03-18T13:58:31.413Z,18.37
2018-03-18T14:01:00.432Z,18.40
2018-03-18T14:03:30.257Z,12.60
2018-03-18T14:05:58.961Z,16.87
2018-03-18T14:08:27.804Z,16.37
2018-03-18T14:10:56.595Z,14.53
2018-03-18T14:13:26.049Z,22.27
2018-03-18T14:15:54.886Z,14.50
2018-03-18T14:18:23.773Z,15.60
2018-03-18T14:20:52.919Z,21.80
2018-03-18T14:23:21.542Z,20.60
2018-03-18T14:25:50.382Z,20.60
2018-03-18T14:28:19.090Z,18.93
2018-03-18T14:30:47.631Z,19.20
2018-03-18T14:33:16.325Z,24.23
2018-03-18T14:35:44.865Z,18.03
2018-03-18T14:38:13.409Z,13.03
2018-03-18T14:40:41.951Z,17.77
2018-03-18T14:43:10.549Z,17.17
2018-03-18T14:45:39.116Z,13.90
2018-03-18T14:48:07.677Z,18.50
2018-03-18T14:50:36.915Z,13.47
2018-03-18T14:53:05.599Z,21.73
2018-03-18T14:55:34.133Z,19.87
2018-03-18T14:58:02.831Z,14.83
2018-03-18T15:00:31.437Z,18.33
2018-03-18T15:03:00.087Z,13.30
2018-03-18T15:05:28.867Z,9.20
2018-03-18T15:07:57.411Z,14.13
2018-03-18T15:10:26.007Z,9.63
2018-03-18T15:12:54.629Z,14.27
2018-03-18T15:15:23.175Z,8.93
2018-03-18T15:17:51.814Z,11.60
2018-03-18T15:20:20.378Z,16.57
2018-03-18T15:22:49.109Z,15.00
2018-03-18T15:25:17.704Z,16.07
2018-03-18T15:27:46.295Z,8.73
2018-03-18T15:30:14.801Z,18.33
2018-03-18T15:32:43.443Z,16.97
2018-03-18T15:35:12.175Z,12.17
2018-03-18T15:37:40.748Z,10.30
2018-03-18T15:40:09.311Z,11.63
2018-03-18T15:42:37.929Z,12.90
2018-03-18T15:45:06.504Z,18.17
2018-03-18T15:47:35.051Z,11.07
2018-03-18T15:50:04.329Z,12.20
2018-03-18T15:52:33.336Z,10.10
2018-03-18T15:55:01.945Z,11.63
2018-03-18T15:57:30.473Z,13.10
2018-03-18T15:59:59.060Z,14.80
2018-03-18T16:02:27.611Z,16.20
2018-03-18T16:04:56.221Z,15.40
2018-03-18T16:07:24.750Z,14.53
2018-03-18T16:09:53.934Z,12.60
2018-03-18T16:12:23.202Z,17.33
2018-03-18T16:14:51.809Z,14.33
2018-03-18T16:17:20.575Z,16.67
2018-03-18T16:19:49.141Z,12.83
2018-03-18T16:22:17.759Z,12.93
2018-03-18T16:24:46.321Z,11.67
2018-03-18T16:27:14.922Z,11.27
2018-03-18T16:29:55.112Z,12.27
2018-03-18T16:32:23.649Z,10.33
2018-03-18T16:34:53.301Z,10.63
2018-03-18T16:37:21.924Z,8.90
2018-03-18T16:39:50.577Z,11.43
2018-03-18T16:42:19.141Z,10.23
2018-03-18T16:44:47.686Z,12.77
2018-03-18T16:47:16.346Z,10.07
2018-03-18T16:49:44.942Z,9.70
2018-03-18T16:52:13.582Z,12.87
2018-03-18T16:54:42.845Z,15.77
2018-03-18T16:57:11.463Z,18.70
2018-03-18T16:59:40.003Z,14.27
2018-03-18T17:02:08.571Z,17.93
2018-03-18T17:04:37.109Z,13.40
2018-03-18T17:07:05.818Z,17.87
2018-03-18T17:09:34.428Z,13.10
2018-03-18T17:12:02.993Z,9.47
2018-03-18T17:14:31.577Z,11.30
2018-03-18T17:17:00.198Z,13.60
2018-03-18T17:19:28.796Z,12.87
2018-03-18T17:21:57.978Z,14.70
2018-03-18T17:24:26.531Z,14.37
2018-03-18T17:26:55.287Z,14.90
2018-03-18T17:29:23.845Z,13.10
2018-03-18T17:31:52.688Z,19.30
2018-03-18T17:34:21.291Z,11.40
2018-03-18T17:36:49.833Z,15.33
2018-03-18T17:39:18.596Z,17.77
2018-03-18T17:41:47.244Z,11.17
2018-03-18T17:44:27.579Z,15.27
2018-03-18T17:47:08.602Z,10.90
2018-03-18T17:49:49.153Z,11.13
2018-03-18T17:52:29.329Z,9.67
2018-03-18T17:55:10.141Z,9.83
2018-03-18T17:57:39.800Z,11.30
2018-03-18T18:00:08.385Z,14.73
2018-03-18T18:02:37.052Z,17.90
2018-03-18T18:05:05.654Z,19.03
2018-03-18T18:07:34.244Z,14.10
2018-03-18T18:10:02.823Z,16.13
2018-03-18T18:12:31.427Z,14.70
2018-03-18T18:14:59.986Z,15.70
2018-03-18T18:17:28.637Z,14.03
2018-03-18T18:19:57.250Z,13.93
2018-03-18T18:22:26.022Z,14.37
2018-03-18T18:24:55.476Z,12.70
2018-03-18T18:27:24.006Z,8.00
2018-03-18T18:29:53.332Z,8.03
2018-03-18T18:32:21.933Z,9.13
2018-03-18T18:34:50.484Z,10.43
2018-03-18T18:37:19.079Z,10.80
2018-03-18T18:39:47.647Z,9.80
2018-03-18T18:42:16.278Z,8.00
2018-03-18T18:44:44.898Z,15.30
2018-03-18T18:47:13.506Z,13.73
2018-03-18T18:49:42.170Z,17.20
2018-03-18T18:52:10.835Z,13.77
2018-03-18T18:54:40.069Z,11.53
2018-03-18T18:57:08.697Z,10.93
2018-03-18T18:59:37.287Z,8.67
2018-03-18T19:02:05.942Z,11.90
2018-03-18T19:04:34.505Z,10.63
2018-03-18T19:07:03.183Z,14.23
2018-03-18T19:09:31.750Z,9.83
2018-03-18T19:12:00.316Z,11.33
2018-03-18T19:14:28.934Z,9.43
2018-03-18T19:16:57.489Z,10.70
2018-03-18T19:19:26.168Z,8.50
2018-03-18T19:21:54.920Z,8.63
2018-03-18T19:24:23.621Z,9.03
2018-03-18T19:26:52.175Z,10.33
2018-03-18T19:29:20.942Z,9.53
2018-03-18T19:31:49.475Z,9.03
2018-03-18T19:34:18.046Z,9.23
2018-03-18T19:36:46.637Z,9.90
2018-03-18T19:39:15.324Z,11.43
2018-03-18T19:41:43.982Z,10.50
2018-03-18T19:44:12.568Z,9.93
2018-03-18T19:46:41.238Z,55.10
2018-03-18T19:49:09.848Z,10.93
2018-03-18T19:51:38.516Z,11.97
2018-03-18T19:54:07.055Z,13.07
2018-03-18T19:56:35.675Z,13.20
2018-03-18T19:59:04.275Z,10.77
2018-03-18T20:01:32.822Z,9.27
2018-03-18T20:04:03.152Z,10.73
2018-03-18T20:06:31.790Z,13.80
2018-03-18T20:09:00.323Z,12.73
2018-03-18T20:11:29.079Z,11.37
2018-03-18T20:13:57.654Z,12.03
2018-03-18T20:16:26.253Z,10.17
2018-03-18T20:18:54.849Z,12.57
2018-03-18T20:21:23.424Z,11.03
2018-03-18T20:23:52.008Z,14.90
2018-03-18T20:26:20.642Z,10.93
2018-03-18T20:28:49.198Z,15.57
2018-03-18T20:31:17.908Z,13.63
2018-03-18T20:33:46.510Z,15.93
2018-03-18T20:36:15.047Z,8.00
2018-03-18T20:38:43.629Z,9.87
2018-03-18T20:41:12.193Z,12.57
2018-03-18T20:43:40.779Z,15.77
2018-03-18T20:46:09.443Z,10.43
2018-03-18T20:48:38.043Z,11.53
2018-03-18T20:51:06.631Z,11.53
2018-03-18T20:53:35.220Z,8.03
2018-03-18T20:56:03.925Z,10.90
2018-03-18T20:58:32.520Z,14.60
2018-03-18T21:01:01.061Z,11.27
2018-03-18T21:03:29.639Z,8.00
2018-03-18T21:05:58.408Z,8.20
2018-03-18T21:08:27.904Z,9.60
2018-03-18T21:10:56.517Z,7.63
2018-03-18T21:13:25.087Z,10.77
2018-03-18T21:15:53.666Z,8.40
2018-03-18T21:18:22.319Z,13.60
2018-03-18T21:20:50.909Z,12.30
2018-03-18T21:23:19.509Z,12.63
2018-03-18T21:25:48.112Z,8.57
2018-03-18T21:28:16.715Z,11.60
2018-03-18T21:30:45.413Z,20.83
2018-03-18T21:33:14.148Z,12.77
2018-03-18T21:35:42.782Z,10.37
2018-03-18T21:38:11.443Z,8.23
2018-03-18T21:40:40.033Z,10.03
2018-03-18T21:43:08.643Z,8.93
2018-03-18T21:45:38.100Z,8.47
2018-03-18T21:48:06.883Z,8.73
2018-03-18T21:50:35.486Z,7.30
2018-03-18T21:53:04.330Z,9.70
2018-03-18T21:55:32.946Z,9.20
2018-03-18T21:58:01.562Z,10.07
2018-03-18T22:00:30.238Z,11.83
2018-03-18T22:02:58.853Z,16.57
2018-03-18T22:05:28.152Z,9.17
2018-03-18T22:07:56.859Z,9.83
2018-03-18T22:10:25.562Z,14.80
2018-03-18T22:12:54.251Z,10.63
2018-03-18T22:15:22.921Z,13.70
2018-03-18T22:17:52.148Z,12.50
2018-03-18T22:20:20.734Z,8.33
2018-03-18T22:22:49.333Z,10.00
2018-03-18T22:25:17.976Z,7.93
2018-03-18T22:27:46.528Z,9.47
2018-03-18T22:30:15.095Z,11.20
2018-03-18T22:32:43.773Z,10.50
2018-03-18T22:35:12.334Z,9.97
2018-03-18T22:37:41.033Z,9.03
2018-03-18T22:40:09.598Z,9.33
2018-03-18T22:42:38.192Z,9.20
2018-03-18T22:45:06.795Z,8.90
2018-03-18T22:47:35.375Z,8.80
2018-03-18T22:50:04.000Z,9.50
2018-03-18T22:52:32.648Z,9.07
2018-03-18T22:55:01.174Z,8.60
2018-03-18T22:57:29.773Z,9.30
2018-03-18T22:59:58.411Z,9.07
2018-03-18T23:02:27.150Z,10.50
2018-03-18T23:04:55.705Z,11.40
2018-03-18T23:07:24.231Z,11.83
2018-03-18T23:09:52.874Z,11.23
2018-03-18T23:12:21.562Z,13.03
2018-03-18T23:14:50.154Z,13.17
2018-03-18T23:17:18.761Z,11.13
2018-03-18T23:19:47.396Z,12.63
2018-03-18T23:22:16.587Z,13.70
2018-03-18T23:24:45.180Z,14.73
2018-03-18T23:27:13.952Z,17.53
2018-03-18T23:29:42.536Z,16.90
2018-03-18T23:32:11.256Z,18.23
2018-03-18T23:34:39.781Z,16.20
2018-03-18T23:37:09.157Z,13.37
2018-03-18T23:39:37.697Z,15.30
2018-03-18T23:42:06.306Z,14.00
2018-03-18T23:44:34.928Z,14.87
2018-03-18T23:47:03.633Z,14.93
2018-03-18T23:49:32.225Z,14.50
2018-03-18T23:52:00.746Z,16.87
2018-03-18T23:54:29.579Z,16.07
2018-03-18T23:56:58.218Z,18.67
2018-03-18T23:59:26.754Z,20.13
